createdAt,value
2018-12-16T00:01:48.620Z,12.50
2018-12-16T00:04:16.910Z,18.13
2018-12-16T00:06:45.048Z,16.60
2018-12-16T00:09:13.248Z,10.63
2018-12-16T00:11:41.393Z,14.63
2018-12-16T00:14:09.569Z,16.20
2018-12-16T00:16:37.693Z,10.77
2018-12-16T00:19:05.996Z,15.93
2018-12-16T00:21:34.078Z,14.27
2018-12-16T00:24:02.196Z,9.17
2018-12-16T00:26:40.621Z,16.37
2018-12-16T00:29:08.918Z,4.17
2018-12-16T00:31:37.193Z,10.17
2018-12-16T00:34:05.801Z,16.17
2018-12-16T00:36:34.057Z,15.37
2018-12-16T00:39:03.188Z,16.80
2018-12-16T00:41:31.441Z,17.13
2018-12-16T00:44:00.245Z,14.07
2018-12-16T00:46:29.017Z,9.67
2018-12-16T00:48:57.319Z,11.67
2018-12-16T00:51:25.811Z,13.07
2018-12-16T00:53:54.703Z,17.60
2018-12-16T00:56:23.048Z,10.97
2018-12-16T00:58:51.256Z,4.50
2018-12-16T01:01:20.352Z,15.20
2018-12-16T01:03:48.488Z,9.03
2018-12-16T01:06:16.595Z,11.57
2018-12-16T01:08:44.880Z,13.37
2018-12-16T01:11:12.993Z,14.60
2018-12-16T01:13:41.352Z,11.87
2018-12-16T01:16:09.508Z,16.40
2018-12-16T01:18:37.682Z,13.73
2018-12-16T01:21:05.789Z,12.80
2018-12-16T01:23:34.235Z,12.03
2018-12-16T01:26:02.410Z,15.53
2018-12-16T01:28:30.512Z,9.30
2018-12-16T01:30:58.917Z,13.27
2018-12-16T01:33:27.307Z,13.23
2018-12-16T01:35:55.440Z,12.13
2018-12-16T01:38:23.570Z,15.70
2018-12-16T01:40:51.711Z,16.17
2018-12-16T01:43:19.746Z,4.73
2018-12-16T01:45:47.897Z,14.47
2018-12-16T01:48:16.076Z,14.93
2018-12-16T01:50:44.188Z,16.23
2018-12-16T01:53:12.412Z,13.97
2018-12-16T01:55:40.516Z,13.60
2018-12-16T01:58:08.663Z,5.93
2018-12-16T02:00:38.069Z,2.70
2018-12-16T02:03:06.185Z,14.27
2018-12-16T02:05:34.341Z,10.27
2018-12-16T02:08:02.586Z,10.83
2018-12-16T02:10:30.697Z,10.20
2018-12-16T02:12:58.820Z,12.43
2018-12-16T02:15:26.945Z,7.00
2018-12-16T02:17:55.193Z,10.63
2018-12-16T02:20:23.400Z,8.30
2018-12-16T02:22:56.764Z,8.43
2018-12-16T02:25:21.694Z,5.53
2018-12-16T02:27:49.809Z,9.60
2018-12-16T02:30:23.502Z,11.40
2018-12-16T02:32:51.994Z,9.93
2018-12-16T02:35:20.084Z,10.00
2018-12-16T02:37:48.202Z,5.63
2018-12-16T02:40:16.345Z,9.70
2018-12-16T02:42:44.550Z,11.93
2018-12-16T02:45:12.804Z,5.10
2018-12-16T02:47:40.956Z,11.13
2018-12-16T02:50:09.088Z,11.63
2018-12-16T02:52:37.289Z,10.27
2018-12-16T02:55:05.898Z,6.23
2018-12-16T02:57:34.140Z,12.03
2018-12-16T03:00:02.366Z,6.40
2018-12-16T03:02:30.502Z,9.77
2018-12-16T03:04:58.621Z,4.57
2018-12-16T03:07:26.754Z,8.73
2018-12-16T03:09:54.889Z,9.63
2018-12-16T03:12:23.021Z,9.20
2018-12-16T03:14:51.138Z,3.93
2018-12-16T03:17:19.409Z,6.10
2018-12-16T03:19:47.509Z,4.53
2018-12-16T03:22:15.619Z,6.33
2018-12-16T03:24:43.706Z,7.00
2018-12-16T03:27:11.898Z,7.13
2018-12-16T03:29:40.522Z,3.70
2018-12-16T03:32:09.306Z,7.00
2018-12-16T03:34:37.971Z,4.77
2018-12-16T03:37:06.088Z,6.40
2018-12-16T03:39:34.425Z,7.00
2018-12-16T03:42:02.599Z,7.73
2018-12-16T03:44:30.714Z,7.33
2018-12-16T03:46:59.053Z,6.57
2018-12-16T03:49:27.189Z,4.20
2018-12-16T03:51:55.328Z,7.10
2018-12-16T03:54:23.880Z,4.90
2018-12-16T03:56:52.033Z,7.10
2018-12-16T03:59:20.485Z,7.37
2018-12-16T04:01:58.131Z,5.77
2018-12-16T04:04:26.780Z,8.77
2018-12-16T04:06:55.090Z,9.73
2018-12-16T04:09:23.213Z,6.10
2018-12-16T04:11:51.326Z,8.63
2018-12-16T04:14:19.433Z,8.00
2018-12-16T04:16:47.597Z,6.77
2018-12-16T04:19:15.709Z,4.73
2018-12-16T04:21:43.870Z,9.80
2018-12-16T04:24:12.216Z,12.17
2018-12-16T04:26:40.333Z,8.83
2018-12-16T04:29:08.454Z,10.37
2018-12-16T04:31:36.637Z,8.63
2018-12-16T04:34:04.818Z,8.93
2018-12-16T04:36:33.297Z,11.85
2018-12-16T04:39:01.454Z,6.97
2018-12-16T04:41:29.596Z,7.60
2018-12-16T04:43:57.689Z,8.63
2018-12-16T04:46:26.281Z,7.63
2018-12-16T04:48:54.548Z,10.50
2018-12-16T04:51:22.871Z,8.00
2018-12-16T04:53:51.034Z,4.63
2018-12-16T04:56:19.275Z,13.70
2018-12-16T04:58:47.532Z,11.77
2018-12-16T05:01:15.874Z,11.93
2018-12-16T05:03:44.006Z,8.20
2018-12-16T05:06:12.208Z,10.67
2018-12-16T05:08:40.561Z,12.40
2018-12-16T05:11:08.697Z,10.27
2018-12-16T05:13:36.865Z,10.87
2018-12-16T05:16:05.185Z,12.50
2018-12-16T05:18:33.474Z,10.63
2018-12-16T05:21:01.639Z,8.57
2018-12-16T05:23:30.209Z,9.20
2018-12-16T05:25:58.352Z,5.33
2018-12-16T05:28:26.606Z,11.30
2018-12-16T05:30:54.703Z,11.60
2018-12-16T05:33:22.801Z,13.03
2018-12-16T05:35:50.902Z,11.70
2018-12-16T05:38:19.677Z,14.50
2018-12-16T05:40:47.817Z,14.60
2018-12-16T05:43:15.940Z,14.40
2018-12-16T05:45:44.057Z,4.90
2018-12-16T05:48:12.197Z,11.43
2018-12-16T05:50:40.308Z,7.20
2018-12-16T05:53:08.709Z,14.10
2018-12-16T05:55:36.805Z,11.07
2018-12-16T05:58:04.919Z,10.37
2018-12-16T06:00:33.093Z,15.40
2018-12-16T06:03:01.180Z,6.23
2018-12-16T06:05:29.330Z,11.77
2018-12-16T06:07:57.790Z,10.27
2018-12-16T06:10:25.905Z,9.90
2018-12-16T06:12:54.015Z,14.87
2018-12-16T06:15:22.581Z,7.00
2018-12-16T06:17:50.783Z,10.20
2018-12-16T06:20:18.901Z,8.17
2018-12-16T06:22:47.194Z,12.53
2018-12-16T06:25:15.448Z,11.40
2018-12-16T06:27:43.594Z,11.30
2018-12-16T06:30:12.455Z,8.33
2018-12-16T06:32:40.572Z,5.10
2018-12-16T06:35:08.751Z,10.10
2018-12-16T06:37:36.926Z,8.50
2018-12-16T06:40:05.709Z,13.57
2018-12-16T06:42:34.029Z,7.93
2018-12-16T06:45:02.304Z,7.70
2018-12-16T06:47:31.022Z,4.47
2018-12-16T06:49:59.553Z,4.70
2018-12-16T06:52:28.062Z,11.53
2018-12-16T06:54:56.201Z,12.60
2018-12-16T06:57:24.321Z,10.50
2018-12-16T06:59:53.032Z,9.50
2018-12-16T07:02:21.158Z,6.40
2018-12-16T07:04:49.286Z,9.83
2018-12-16T07:07:17.833Z,8.50
2018-12-16T07:09:45.993Z,9.80
2018-12-16T07:12:14.304Z,12.77
2018-12-16T07:14:42.524Z,7.70
2018-12-16T07:17:10.616Z,6.63
2018-12-16T07:19:38.888Z,7.27
2018-12-16T07:22:07.285Z,7.03
2018-12-16T07:24:35.453Z,9.97
2018-12-16T07:27:03.794Z,12.50
2018-12-16T07:29:32.573Z,8.40
2018-12-16T07:32:00.769Z,7.83
2018-12-16T07:34:29.218Z,9.27
2018-12-16T07:36:57.737Z,9.07
2018-12-16T07:39:26.019Z,8.73
2018-12-16T07:41:54.521Z,10.37
2018-12-16T07:44:22.872Z,7.67
2018-12-16T07:46:51.859Z,9.55
2018-12-16T07:49:20.188Z,8.20
2018-12-16T07:51:48.853Z,9.93
2018-12-16T07:54:17.334Z,8.57
2018-12-16T07:56:46.585Z,2.80
2018-12-16T07:59:14.778Z,8.60
2018-12-16T08:01:43.036Z,6.57
2018-12-16T08:04:11.194Z,5.73
2018-12-16T08:06:39.322Z,3.50
2018-12-16T08:09:07.660Z,3.23
2018-12-16T08:11:35.821Z,5.10
2018-12-16T08:14:05.529Z,7.80
2018-12-16T08:16:33.653Z,5.87
2018-12-16T08:19:07.083Z,7.77
2018-12-16T08:21:32.445Z,5.30
2018-12-16T08:24:00.573Z,4.37
2018-12-16T08:26:28.874Z,3.67
2018-12-16T08:28:57.096Z,5.23
2018-12-16T08:31:25.271Z,4.10
2018-12-16T08:33:53.414Z,4.20
2018-12-16T08:36:21.746Z,4.70
2018-12-16T08:38:50.464Z,5.70
2018-12-16T08:41:18.593Z,6.13
2018-12-16T08:43:46.914Z,7.17
2018-12-16T08:46:14.998Z,5.53
2018-12-16T08:48:43.146Z,3.50
2018-12-16T08:51:11.641Z,4.47
2018-12-16T08:53:39.817Z,8.90
2018-12-16T08:56:07.885Z,7.30
2018-12-16T08:58:36.047Z,2.60
2018-12-16T09:01:04.170Z,7.00
2018-12-16T09:03:32.262Z,7.10
2018-12-16T09:06:00.379Z,2.73
2018-12-16T09:08:28.629Z,3.30
2018-12-16T09:10:56.800Z,5.73
2018-12-16T09:13:24.945Z,6.10
2018-12-16T09:15:53.092Z,5.70
2018-12-16T09:18:21.150Z,5.40
2018-12-16T09:20:49.323Z,8.03
2018-12-16T09:23:17.460Z,6.67
2018-12-16T09:25:45.575Z,4.40
2018-12-16T09:28:13.763Z,8.03
2018-12-16T09:30:42.537Z,5.57
2018-12-16T09:33:10.681Z,7.03
2018-12-16T09:35:38.877Z,4.47
2018-12-16T09:38:06.956Z,6.40
2018-12-16T09:40:35.108Z,4.30
2018-12-16T09:43:03.593Z,8.00
2018-12-16T09:45:32.720Z,7.53
2018-12-16T09:48:01.205Z,5.47
2018-12-16T09:50:29.302Z,3.03
2018-12-16T09:52:57.651Z,8.73
2018-12-16T09:55:25.821Z,6.90
2018-12-16T09:57:53.965Z,4.20
2018-12-16T10:00:22.142Z,2.57
2018-12-16T10:02:50.238Z,5.10
2018-12-16T10:05:18.369Z,5.27
2018-12-16T10:07:46.491Z,7.30
2018-12-16T10:10:14.834Z,5.07
2018-12-16T10:12:43.005Z,6.57
2018-12-16T10:15:11.126Z,6.33
2018-12-16T10:17:39.457Z,5.97
2018-12-16T10:20:09.213Z,5.93
2018-12-16T10:22:37.341Z,9.47
2018-12-16T10:25:05.693Z,6.43
2018-12-16T10:27:33.819Z,4.80
2018-12-16T10:30:02.107Z,7.43
2018-12-16T10:32:30.416Z,4.30
2018-12-16T10:34:59.000Z,5.33
2018-12-16T10:37:27.977Z,2.83
2018-12-16T10:39:56.678Z,3.97
2018-12-16T10:42:25.055Z,8.37
2018-12-16T10:44:53.476Z,6.37
2018-12-16T10:47:22.185Z,5.53
2018-12-16T10:49:50.461Z,6.17
2018-12-16T10:52:18.681Z,8.80
2018-12-16T10:54:46.853Z,6.43
2018-12-16T10:57:14.944Z,4.57
2018-12-16T10:59:43.093Z,7.90
2018-12-16T11:02:11.225Z,7.73
2018-12-16T11:04:39.381Z,4.50
2018-12-16T11:07:08.053Z,7.70
2018-12-16T11:09:36.134Z,6.23
2018-12-16T11:12:04.302Z,4.37
2018-12-16T11:14:32.543Z,5.23
2018-12-16T11:17:00.681Z,5.77
2018-12-16T11:19:28.789Z,6.47
2018-12-16T11:21:56.977Z,4.43
2018-12-16T11:24:25.146Z,6.47
2018-12-16T11:26:53.298Z,7.00
2018-12-16T11:29:21.448Z,5.00
2018-12-16T11:31:49.552Z,6.90
2018-12-16T11:34:17.726Z,6.93
2018-12-16T11:36:46.338Z,5.93
2018-12-16T11:39:14.885Z,5.13
2018-12-16T11:41:43.026Z,6.47
2018-12-16T11:44:11.225Z,6.20
2018-12-16T11:46:39.354Z,7.07
2018-12-16T11:49:07.783Z,5.63
2018-12-16T11:51:36.648Z,7.37
2018-12-16T11:54:04.862Z,5.40
2018-12-16T11:56:33.091Z,6.30
2018-12-16T11:59:01.338Z,7.70
2018-12-16T12:01:29.578Z,5.37
2018-12-16T12:03:58.072Z,5.17
2018-12-16T12:06:28.252Z,6.93
2018-12-16T12:08:56.723Z,7.37
2018-12-16T12:11:25.946Z,4.10
2018-12-16T12:13:54.298Z,5.40
2018-12-16T12:16:22.857Z,8.23
2018-12-16T12:18:59.138Z,5.70
2018-12-16T12:21:27.504Z,4.77
2018-12-16T12:23:56.016Z,6.43
2018-12-16T12:26:24.502Z,8.03
2018-12-16T12:28:53.043Z,4.97
2018-12-16T12:31:21.387Z,5.67
2018-12-16T12:33:49.651Z,5.60
2018-12-16T12:36:18.670Z,5.60
2018-12-16T12:38:47.012Z,4.57
2018-12-16T12:41:15.245Z,5.80
2018-12-16T12:43:44.192Z,8.20
2018-12-16T12:46:12.557Z,8.07
2018-12-16T12:48:40.749Z,5.57
2018-12-16T12:51:09.463Z,5.73
2018-12-16T12:53:38.254Z,5.13
2018-12-16T12:56:07.525Z,5.67
2018-12-16T12:58:35.957Z,7.83
2018-12-16T13:01:04.791Z,5.53
2018-12-16T13:03:32.925Z,5.83
2018-12-16T13:06:02.033Z,6.77
2018-12-16T13:08:30.360Z,7.33
2018-12-16T13:10:59.240Z,5.73
2018-12-16T13:13:27.374Z,3.17
2018-12-16T13:15:55.562Z,8.00
2018-12-16T13:18:23.768Z,4.00
2018-12-16T13:20:51.862Z,3.93
2018-12-16T13:23:19.991Z,5.60
2018-12-16T13:25:59.567Z,4.60
2018-12-16T13:28:27.954Z,4.63
2018-12-16T13:30:56.933Z,5.47
2018-12-16T13:33:25.084Z,4.93
2018-12-16T13:35:54.027Z,8.57
2018-12-16T13:38:22.166Z,3.47
2018-12-16T13:40:50.375Z,2.33
2018-12-16T13:43:18.497Z,3.23
2018-12-16T13:45:46.768Z,6.53
2018-12-16T13:48:14.892Z,7.00
2018-12-16T13:50:43.641Z,4.40
2018-12-16T13:53:12.277Z,7.10
2018-12-16T13:55:41.039Z,5.57
2018-12-16T13:58:09.610Z,7.50
2018-12-16T14:00:37.990Z,6.57
2018-12-16T14:03:06.112Z,7.83
2018-12-16T14:05:34.286Z,4.90
2018-12-16T14:08:02.450Z,3.03
2018-12-16T14:10:30.565Z,6.80
2018-12-16T14:13:02.008Z,6.83
2018-12-16T14:15:30.173Z,6.33
2018-12-16T14:17:58.318Z,5.17
2018-12-16T14:20:26.827Z,3.07
2018-12-16T14:22:55.865Z,7.27
2018-12-16T14:25:24.037Z,6.80
2018-12-16T14:27:52.330Z,7.00
2018-12-16T14:30:20.461Z,6.23
2018-12-16T14:32:48.847Z,3.07
2018-12-16T14:35:17.075Z,5.13
2018-12-16T14:37:45.301Z,4.73
2018-12-16T14:40:14.161Z,5.30
2018-12-16T14:42:42.326Z,7.93
2018-12-16T14:45:10.809Z,6.37
2018-12-16T14:47:38.941Z,7.27
2018-12-16T14:51:12.469Z,6.43
2018-12-16T14:53:41.761Z,6.23
2018-12-16T14:56:09.910Z,7.80
2018-12-16T14:58:38.095Z,3.50
2018-12-16T15:01:06.249Z,6.57
2018-12-16T15:03:34.386Z,6.27
2018-12-16T15:06:02.493Z,6.83
2018-12-16T15:08:31.078Z,7.20
2018-12-16T15:10:59.802Z,4.83
2018-12-16T15:13:27.975Z,9.13
2018-12-16T15:15:56.174Z,7.93
2018-12-16T15:18:24.370Z,9.87
2018-12-16T15:20:52.595Z,4.83
2018-12-16T15:23:21.565Z,6.10
2018-12-16T15:25:49.707Z,5.70
2018-12-16T15:28:17.853Z,7.17
2018-12-16T15:30:46.175Z,8.07
2018-12-16T15:33:14.334Z,8.40
2018-12-16T15:35:42.503Z,6.20
2018-12-16T15:38:11.106Z,6.07
2018-12-16T15:40:39.197Z,8.43
2018-12-16T15:43:07.367Z,6.23
2018-12-16T15:45:35.630Z,8.90
2018-12-16T15:48:03.819Z,6.47
2018-12-16T15:50:32.070Z,6.77
2018-12-16T15:53:00.301Z,6.47
2018-12-16T15:55:28.732Z,7.20
2018-12-16T15:57:57.209Z,8.53
2018-12-16T16:00:25.974Z,8.13
2018-12-16T16:02:54.108Z,3.87
2018-12-16T16:05:22.273Z,8.17
2018-12-16T16:07:50.393Z,7.40
2018-12-16T16:10:18.529Z,9.80
2018-12-16T16:12:46.681Z,7.20
2018-12-16T16:15:14.931Z,7.57
2018-12-16T16:17:43.074Z,6.33
2018-12-16T16:20:11.185Z,7.33
2018-12-16T16:23:10.179Z,4.30
2018-12-16T16:25:38.332Z,7.83
2018-12-16T16:28:06.552Z,9.10
2018-12-16T16:30:34.709Z,9.13
2018-12-16T16:33:03.014Z,9.87
2018-12-16T16:35:31.359Z,9.43
2018-12-16T16:38:00.784Z,9.20
2018-12-16T16:40:29.521Z,7.90
2018-12-16T16:42:57.696Z,8.00
2018-12-16T16:45:25.869Z,6.67
2018-12-16T16:47:54.064Z,7.37
2018-12-16T16:50:22.263Z,7.20
2018-12-16T16:52:50.615Z,8.50
2018-12-16T16:55:18.768Z,7.37
2018-12-16T16:57:47.249Z,8.47
2018-12-16T17:00:16.293Z,8.17
2018-12-16T17:02:44.541Z,7.90
2018-12-16T17:05:12.829Z,6.83
2018-12-16T17:07:40.961Z,8.93
2018-12-16T17:10:09.150Z,7.50
2018-12-16T17:12:37.304Z,9.13
2018-12-16T17:15:06.255Z,8.83
2018-12-16T17:17:34.374Z,7.10
2018-12-16T17:20:02.526Z,8.17
2018-12-16T17:22:32.788Z,5.53
2018-12-16T17:25:00.909Z,8.13
2018-12-16T17:27:29.047Z,7.43
2018-12-16T17:29:57.086Z,8.73
2018-12-16T17:32:25.297Z,8.30
2018-12-16T17:34:53.806Z,6.37
2018-12-16T17:37:22.009Z,8.40
2018-12-16T17:39:50.096Z,6.07
2018-12-16T17:42:18.400Z,8.67
2018-12-16T17:44:46.509Z,8.43
2018-12-16T17:47:14.754Z,9.53
2018-12-16T17:49:45.474Z,8.00
2018-12-16T17:52:13.616Z,8.50
2018-12-16T17:54:41.857Z,9.53
2018-12-16T17:57:10.386Z,5.87
2018-12-16T17:59:38.844Z,8.17
2018-12-16T18:02:07.047Z,8.70
2018-12-16T18:04:35.295Z,5.33
2018-12-16T18:07:03.422Z,8.87
2018-12-16T18:09:31.626Z,8.40
2018-12-16T18:12:00.297Z,8.93
2018-12-16T18:14:28.514Z,7.23
2018-12-16T18:16:57.810Z,9.90
2018-12-16T18:19:31.516Z,6.80
2018-12-16T18:22:01.473Z,9.03
2018-12-16T18:24:29.914Z,9.57
2018-12-16T18:26:58.071Z,8.57
2018-12-16T18:29:26.238Z,2.80
2018-12-16T18:31:54.585Z,7.77
2018-12-16T18:34:22.935Z,7.00
2018-12-16T18:36:51.262Z,9.10
2018-12-16T18:39:19.684Z,7.60
2018-12-16T18:41:48.014Z,9.33
2018-12-16T18:44:16.158Z,9.40
2018-12-16T18:46:44.341Z,4.70
2018-12-16T18:49:12.545Z,6.53
2018-12-16T18:51:40.688Z,7.73
2018-12-16T18:54:09.070Z,9.30
2018-12-16T18:56:37.356Z,9.83
2018-12-16T18:59:05.542Z,7.93
2018-12-16T19:01:34.091Z,7.03
2018-12-16T19:04:02.306Z,9.83
2018-12-16T19:06:31.185Z,8.87
2018-12-16T19:08:59.361Z,10.07
2018-12-16T19:11:27.826Z,8.33
2018-12-16T19:13:55.994Z,9.50
2018-12-16T19:16:24.910Z,7.77
2018-12-16T19:18:53.523Z,9.27
2018-12-16T19:21:21.858Z,8.63
2018-12-16T19:23:50.146Z,6.87
2018-12-16T19:26:18.342Z,6.63
2018-12-16T19:28:46.489Z,9.33
2018-12-16T19:31:14.619Z,6.57
2018-12-16T19:33:42.779Z,8.50
2018-12-16T19:36:11.075Z,9.47
2018-12-16T19:38:41.097Z,10.00
2018-12-16T19:41:09.306Z,7.77
2018-12-16T19:43:37.520Z,4.90
2018-12-16T19:46:05.741Z,8.03
2018-12-16T19:48:33.883Z,8.93
2018-12-16T19:51:02.038Z,7.27
2018-12-16T19:53:30.442Z,9.17
2018-12-16T19:56:00.400Z,7.63
2018-12-16T19:58:28.733Z,8.63
2018-12-16T20:00:56.953Z,7.13
2018-12-16T20:03:25.466Z,6.03
2018-12-16T20:06:00.006Z,6.33
2018-12-16T20:08:28.253Z,8.27
2018-12-16T20:10:56.386Z,9.20
2018-12-16T20:13:24.751Z,10.00
2018-12-16T20:15:52.916Z,8.23
2018-12-16T20:18:21.102Z,7.67
2018-12-16T20:20:49.321Z,8.83
2018-12-16T20:23:17.437Z,9.50
2018-12-16T20:25:45.580Z,11.20
2018-12-16T20:28:13.853Z,9.53
2018-12-16T20:30:42.197Z,9.13
2018-12-16T20:33:10.349Z,10.40
2018-12-16T20:35:38.515Z,10.70
2018-12-16T20:38:06.817Z,10.57
2018-12-16T20:40:35.006Z,11.93
2018-12-16T20:43:03.177Z,10.87
2018-12-16T20:45:31.301Z,11.13
2018-12-16T20:48:00.149Z,12.57
2018-12-16T20:50:28.567Z,11.33
2018-12-16T20:52:56.746Z,11.40
2018-12-16T20:55:24.853Z,13.03
2018-12-16T20:57:53.381Z,11.37
2018-12-16T21:00:21.591Z,11.80
2018-12-16T21:02:49.719Z,11.97
2018-12-16T21:05:19.759Z,13.77
2018-12-16T21:07:47.907Z,10.43
2018-12-16T21:10:16.041Z,11.47
2018-12-16T21:12:49.793Z,12.20
2018-12-16T21:15:23.398Z,12.87
2018-12-16T21:17:56.972Z,13.10
2018-12-16T21:20:25.294Z,10.97
2018-12-16T21:22:53.686Z,12.33
2018-12-16T21:25:22.244Z,10.80
2018-12-16T21:27:50.523Z,10.23
2018-12-16T21:30:18.685Z,12.10
2018-12-16T21:32:47.066Z,12.37
2018-12-16T21:35:15.250Z,11.20
2018-12-16T21:37:43.421Z,12.87
2018-12-16T21:40:12.277Z,11.77
2018-12-16T21:42:40.456Z,12.90
2018-12-16T21:45:08.594Z,12.10
2018-12-16T21:47:36.938Z,12.83
2018-12-16T21:50:05.760Z,13.50
2018-12-16T21:52:33.909Z,12.27
2018-12-16T21:55:02.176Z,13.40
2018-12-16T21:57:33.138Z,12.20
2018-12-16T22:00:01.117Z,13.67
2018-12-16T22:02:29.268Z,12.33
2018-12-16T22:04:57.415Z,11.53
2018-12-16T22:07:26.935Z,10.13
2018-12-16T22:09:55.040Z,13.20
2018-12-16T22:12:23.181Z,13.80
2018-12-16T22:14:51.440Z,13.23
2018-12-16T22:17:19.643Z,13.00
2018-12-16T22:19:48.327Z,12.83
2018-12-16T22:22:16.675Z,13.27
2018-12-16T22:24:45.095Z,13.47
2018-12-16T22:27:13.284Z,13.30
2018-12-16T22:29:42.292Z,12.30
2018-12-16T22:32:10.974Z,9.57
2018-12-16T22:34:39.102Z,13.27
2018-12-16T22:37:08.458Z,12.23
2018-12-16T22:39:36.594Z,11.27
2018-12-16T22:42:04.745Z,12.73
2018-12-16T22:44:32.950Z,11.23
2018-12-16T22:47:01.040Z,12.23
2018-12-16T22:49:29.641Z,12.50
2018-12-16T22:51:58.053Z,10.83
2018-12-16T22:54:26.213Z,14.27
2018-12-16T22:56:54.507Z,13.17
2018-12-16T22:59:23.049Z,13.40
2018-12-16T23:01:51.397Z,11.60
2018-12-16T23:04:19.841Z,13.53
2018-12-16T23:06:48.401Z,12.37
2018-12-16T23:09:17.296Z,14.60
2018-12-16T23:11:45.448Z,12.53
2018-12-16T23:14:13.812Z,12.30
2018-12-16T23:16:41.981Z,12.70
2018-12-16T23:19:10.154Z,13.60
2018-12-16T23:21:38.769Z,12.50
2018-12-16T23:24:06.895Z,13.17
2018-12-16T23:26:37.053Z,12.77
2018-12-16T23:29:05.218Z,14.33
2018-12-16T23:31:33.560Z,12.37
2018-12-16T23:34:01.747Z,11.30
2018-12-16T23:36:29.913Z,12.93
2018-12-16T23:41:35.254Z,9.90
2018-12-16T23:44:03.426Z,11.83
2018-12-16T23:46:31.768Z,12.63
2018-12-16T23:48:59.915Z,13.60
2018-12-16T23:51:28.318Z,14.07
2018-12-16T23:53:56.485Z,12.30
2018-12-16T23:56:25.088Z,14.27
2018-12-16T23:58:53.890Z,13.80
